Aviation Digital Data Service (ADDS)

Output produced by METARs form (0858 UTC 01 November 2014)
found at http://aviationweather.gov/adds/metars/
 
KHYA 010541Z 0106/0206 04012KT P6SM SCT080 OVC200 
     FM011000 03016G24KT P6SM -RA OVC035 
     FM011500 04020G30KT 3SM -RA OVC015 
     FM011900 02028G38KT 2SM -RA BR OVC008 
     FM020000 01032G46KT P6SM -RA OVC015